Time;durP1;ratioP1;P1;durP2;ratioP2;P2;SDS_P1;SDS_P2;PMS_P1;PMS_P2;Temp;Humidity;BMP_temperature;BMP_pressure;BME280_temperature;BME280_humidity;BME280_pressure;Samples;Min_cycle;Max_cycle;Signal;HPM_P1;HPM_P2
2023/02/11 00:01:10;;;;;;;23.90;7.57;;;6.60;99.90;;;;;;5062437;28;20047;-60
2023/02/11 00:03:37;;;;;;;18.20;5.55;;;6.70;99.90;;;;;;5070693;28;20048;-61
2023/02/11 00:06:08;;;;;;;23.02;7.15;;;6.70;99.90;;;;;;5071507;28;20053;-61
2023/02/11 00:08:34;;;;;;;27.25;6.80;;;6.70;99.90;;;;;;5071066;28;20141;-61
2023/02/11 00:11:00;;;;;;;21.88;6.10;;;6.70;99.90;;;;;;5071193;28;20116;-61
2023/02/11 00:13:26;;;;;;;22.95;7.40;;;6.70;99.90;;;;;;5059403;28;20025;-61
2023/02/11 00:15:52;;;;;;;26.58;5.88;;;6.70;99.90;;;;;;5069351;28;20471;-61
2023/02/11 00:18:19;;;;;;;26.80;6.38;;;6.70;99.90;;;;;;5071023;28;20546;-61
2023/02/11 00:20:45;;;;;;;21.35;6.18;;;6.70;99.90;;;;;;5071180;28;20032;-61
2023/02/11 00:23:10;;;;;;;25.75;6.40;;;6.70;99.90;;;;;;5063034;28;20374;-60
2023/02/11 00:25:44;;;;;;;27.73;5.97;;;6.70;99.90;;;;;;5051288;28;20040;-60
2023/02/11 00:28:10;;;;;;;27.38;7.47;;;6.70;99.90;;;;;;5049670;28;20037;-61
2023/02/11 00:30:36;;;;;;;24.73;6.57;;;6.70;99.90;;;;;;5051228;28;20041;-61
2023/02/11 00:33:02;;;;;;;29.90;6.32;;;6.80;99.90;;;;;;5051058;28;20048;-61
2023/02/11 00:35:28;;;;;;;32.53;8.60;;;6.80;99.90;;;;;;5050871;28;20095;-61
2023/02/11 00:37:54;;;;;;;23.65;6.97;;;6.80;99.90;;;;;;5050892;28;20045;-61
2023/02/11 00:40:19;;;;;;;23.10;6.30;;;6.80;99.90;;;;;;5050839;28;20407;-61
2023/02/11 00:42:45;;;;;;;29.88;6.75;;;6.80;99.90;;;;;;5051055;28;20037;-61
2023/02/11 00:45:11;;;;;;;27.95;6.75;;;6.80;99.90;;;;;;5050806;28;20417;-61
2023/02/11 00:47:37;;;;;;;30.67;7.30;;;6.90;99.90;;;;;;5051271;28;20041;-61
2023/02/11 00:50:04;;;;;;;23.70;7.68;;;6.80;99.90;;;;;;5050751;28;20147;-61
2023/02/11 00:52:33;;;;;;;27.40;7.78;;;6.90;99.90;;;;;;5051013;28;20033;-61
2023/02/11 00:54:59;;;;;;;26.40;6.82;;;6.80;99.90;;;;;;5051134;28;20037;-61
2023/02/11 00:57:24;;;;;;;21.20;7.32;;;6.80;99.90;;;;;;5061292;28;20056;-61
2023/02/11 00:59:50;;;;;;;21.73;7.63;;;6.80;99.90;;;;;;5070426;28;20035;-61
2023/02/11 01:02:16;;;;;;;27.88;8.40;;;6.80;99.90;;;;;;5070745;28;20375;-61
2023/02/11 01:04:42;;;;;;;29.08;8.35;;;6.80;99.90;;;;;;5070344;28;20040;-61
2023/02/11 01:07:08;;;;;;;27.60;7.55;;;6.80;99.90;;;;;;5033171;28;1080268;-61
2023/02/11 01:09:37;;;;;;;23.20;7.47;;;6.80;99.90;;;;;;5070148;28;20098;-60
2023/02/11 01:12:03;;;;;;;;;;;6.80;99.90;;;;;;5072348;28;20045;-61
2023/02/11 01:14:29;;;;;;;28.55;7.88;;;6.80;99.90;;;;;;5071304;28;19922;-60
2023/02/11 01:16:54;;;;;;;28.48;7.93;;;6.80;99.90;;;;;;5071169;28;20059;-61
2023/02/11 01:19:20;;;;;;;26.85;8.32;;;6.70;99.90;;;;;;5070536;28;20041;-61
2023/02/11 01:21:45;;;;;;;33.30;8.23;;;6.80;99.90;;;;;;5071788;28;20692;-61
2023/02/11 01:24:11;;;;;;;28.42;9.32;;;6.70;99.90;;;;;;5055278;28;20112;-61
2023/02/11 01:26:37;;;;;;;20.70;7.45;;;6.70;99.90;;;;;;5053773;28;20043;-61
2023/02/11 01:29:02;;;;;;;24.35;7.80;;;6.80;99.90;;;;;;5055055;28;20103;-60
2023/02/11 01:31:30;;;;;;;28.58;8.70;;;6.80;99.90;;;;;;5055263;28;20068;-60
2023/02/11 01:33:55;;;;;;;20.55;7.80;;;6.80;99.90;;;;;;5055211;28;20048;-61
2023/02/11 01:36:21;;;;;;;28.13;8.75;;;6.70;99.90;;;;;;5054865;28;20098;-61
2023/02/11 01:38:48;;;;;;;28.95;8.85;;;6.70;99.90;;;;;;5053746;28;20119;-61
2023/02/11 01:41:14;;;;;;;30.48;9.25;;;6.70;99.90;;;;;;5053883;28;20053;-61
2023/02/11 01:43:45;;;;;;;31.33;9.52;;;6.70;99.90;;;;;;5054855;28;20479;-60
2023/02/11 01:46:22;;;;;;;21.70;8.82;;;6.70;99.90;;;;;;5054956;28;20036;-61
2023/02/11 01:49:10;;;;;;;24.27;8.82;;;6.60;99.90;;;;;;5054743;28;20162;-61
2023/02/11 01:52:02;;;;;;;28.98;9.52;;;6.60;99.90;;;;;;5054267;28;20057;-60
2023/02/11 01:57:27;;;;;;;36.67;10.10;;;6.70;99.90;;;;;;5074346;28;20487;-60
2023/02/11 02:00:31;;;;;;;28.73;10.13;;;6.60;99.90;;;;;;5074540;28;20043;-61
2023/02/11 02:03:25;;;;;;;21.90;9.68;;;6.60;99.90;;;;;;5032196;28;20049;-60
2023/02/11 02:06:15;;;;;;;25.60;8.88;;;6.60;99.90;;;;;;5027359;28;20049;-61
2023/02/11 02:08:51;;;;;;;28.25;10.32;;;6.50;99.90;;;;;;5032468;28;20049;-61
2023/02/11 02:11:17;;;;;;;33.47;9.70;;;6.60;99.90;;;;;;5026357;28;20049;-61
2023/02/11 02:13:43;;;;;;;33.53;10.57;;;6.60;99.90;;;;;;5024115;28;20080;-61
2023/02/11 02:16:15;;;;;;;36.13;9.48;;;6.60;99.90;;;;;;5032069;28;20091;-61
2023/02/11 02:18:47;;;;;;;24.92;9.85;;;6.60;99.90;;;;;;5032034;28;20037;-62
2023/02/11 02:21:31;;;;;;;36.70;10.63;;;6.60;99.90;;;;;;5031835;28;20538;-60
2023/02/11 02:24:26;;;;;;;23.73;10.00;;;6.60;99.90;;;;;;5019918;28;20048;-60
2023/02/11 02:26:52;;;;;;;24.63;10.20;;;6.60;99.90;;;;;;4999071;28;20439;-61
2023/02/11 02:29:22;;;;;;;32.50;11.10;;;6.50;99.90;;;;;;5012269;28;20087;-61
2023/02/11 02:32:15;;;;;;;34.65;12.18;;;6.50;99.90;;;;;;5011912;28;20037;-61
2023/02/11 02:34:52;;;;;;;29.17;10.68;;;6.60;99.90;;;;;;5031096;28;20079;-61
2023/02/11 02:37:35;;;;;;;28.25;10.45;;;6.60;99.90;;;;;;5031474;28;20427;-61
2023/02/11 02:40:07;;;;;;;24.77;10.55;;;6.60;99.90;;;;;;5064158;28;20036;-61
2023/02/11 02:42:34;;;;;;;32.88;10.38;;;6.60;99.90;;;;;;5055937;28;20086;-61
2023/02/11 02:45:00;;;;;;;36.33;12.02;;;6.60;99.90;;;;;;5073807;28;20041;-61
2023/02/11 02:47:25;;;;;;;31.73;11.38;;;6.50;99.90;;;;;;5073449;28;20109;-61
2023/02/11 02:49:51;;;;;;;28.15;11.27;;;6.60;99.90;;;;;;5073565;28;20052;-61
2023/02/11 02:52:32;;;;;;;24.63;11.05;;;6.50;99.90;;;;;;5072248;28;20045;-61
2023/02/11 02:55:12;;;;;;;28.65;11.07;;;6.60;99.90;;;;;;5045771;28;20509;-61
2023/02/11 02:58:14;;;;;;;24.23;11.25;;;6.60;99.90;;;;;;5073410;28;20036;-61
2023/02/11 03:00:45;;;;;;;29.55;12.25;;;6.60;99.90;;;;;;5073382;28;20033;-61
2023/02/11 03:03:52;;;;;;;28.05;11.50;;;6.70;99.90;;;;;;5073381;28;20039;-61
2023/02/11 03:06:37;;;;;;;34.97;11.60;;;6.60;99.90;;;;;;5030597;28;20045;-61
2023/02/11 03:09:11;;;;;;;30.73;12.90;;;6.60;99.90;;;;;;5031109;28;20052;-60
2023/02/11 03:11:38;;;;;;;32.03;12.60;;;6.60;99.90;;;;;;5031117;28;20045;-61
2023/02/11 03:14:10;;;;;;;28.00;12.65;;;6.60;99.90;;;;;;5031096;28;20527;-61
2023/02/11 03:16:38;;;;;;;29.73;12.52;;;6.60;99.90;;;;;;5030827;28;20054;-61
2023/02/11 03:19:37;;;;;;;29.38;13.80;;;6.60;99.90;;;;;;5030989;28;20075;-61
2023/02/11 03:22:07;;;;;;;33.58;13.50;;;6.60;99.90;;;;;;4952717;29;20478;-61
2023/02/11 03:24:35;;;;;;;31.02;14.13;;;6.60;99.90;;;;;;4952925;29;20043;-62
2023/02/11 03:27:09;;;;;;;34.00;14.07;;;6.60;99.90;;;;;;4952695;29;20051;-60
2023/02/11 03:29:41;;;;;;;31.63;14.18;;;6.70;99.90;;;;;;4952686;29;20214;-61
2023/02/11 03:32:15;;;;;;;35.65;14.43;;;6.60;99.90;;;;;;4952561;29;20055;-61
2023/02/11 03:34:45;;;;;;;37.08;14.57;;;6.70;99.90;;;;;;4952540;29;20051;-61
2023/02/11 03:37:26;;;;;;;33.47;15.85;;;6.70;99.90;;;;;;4952525;29;20111;-61
2023/02/11 03:40:02;;;;;;;35.90;14.10;;;6.70;99.90;;;;;;4952429;29;20058;-61
2023/02/11 03:42:34;;;;;;;38.78;16.38;;;6.70;99.90;;;;;;4996020;28;20086;-60
2023/02/11 03:45:08;;;;;;;37.70;15.70;;;6.80;99.90;;;;;;5001610;28;20404;-61
2023/02/11 03:47:37;;;;;;;33.75;15.68;;;6.70;99.90;;;;;;5010594;28;20092;-61
2023/02/11 03:50:04;;;;;;;;;;;6.80;99.90;;;;;;5011388;28;20089;-61
2023/02/11 03:52:32;;;;;;;32.22;15.93;;;6.80;99.90;;;;;;4994021;28;19921;-61
2023/02/11 03:55:00;;;;;;;37.55;15.30;;;6.80;99.90;;;;;;5010617;28;20122;-61
2023/02/11 03:57:26;;;;;;;36.20;16.17;;;6.70;99.90;;;;;;5017683;28;20096;-61
2023/02/11 03:59:57;;;;;;;32.60;15.70;;;6.80;99.90;;;;;;5072421;28;20421;-60
2023/02/11 04:02:30;;;;;;;36.13;15.82;;;6.70;99.90;;;;;;5072426;28;20440;-61
2023/02/11 04:04:56;;;;;;;28.55;16.35;;;6.70;99.90;;;;;;5072192;28;20098;-61
2023/02/11 04:07:22;;;;;;;39.33;17.35;;;6.70;99.90;;;;;;5072036;28;20105;-61
2023/02/11 04:09:47;;;;;;;34.55;17.02;;;6.80;99.90;;;;;;5072263;28;20098;-61
2023/02/11 04:12:13;;;;;;;37.22;18.77;;;6.80;99.90;;;;;;5072607;28;20040;-61
2023/02/11 04:14:39;;;;;;;34.97;18.15;;;6.70;99.90;;;;;;5072412;28;20083;-61
2023/02/11 04:17:05;;;;;;;32.65;17.70;;;6.80;99.90;;;;;;5072091;28;20101;-61
2023/02/11 04:19:30;;;;;;;34.63;18.27;;;6.80;99.90;;;;;;5071898;28;20032;-61
2023/02/11 04:21:56;;;;;;;37.05;18.63;;;6.80;99.90;;;;;;5070723;28;20036;-61
2023/02/11 04:24:22;;;;;;;36.53;18.70;;;6.80;99.90;;;;;;5071846;28;20379;-61
2023/02/11 04:26:47;;;;;;;37.28;18.77;;;7.00;99.90;;;;;;5071999;28;20039;-61
2023/02/11 04:29:13;;;;;;;37.60;18.15;;;7.10;99.90;;;;;;5071849;28;20040;-61
2023/02/11 04:31:39;;;;;;;36.70;18.77;;;6.90;99.90;;;;;;5071899;28;20054;-61
2023/02/11 04:34:04;;;;;;;36.03;18.73;;;6.90;99.90;;;;;;5071916;28;20101;-61
2023/02/11 04:36:30;;;;;;;37.60;18.95;;;7.10;99.90;;;;;;5071259;28;20036;-61
2023/02/11 04:38:55;;;;;;;39.70;19.70;;;7.00;99.90;;;;;;5058379;28;20064;-61
2023/02/11 04:41:21;;;;;;;40.03;20.08;;;7.20;99.90;;;;;;5071838;28;20040;-61
2023/02/11 04:43:47;;;;;;;33.78;19.30;;;7.00;99.90;;;;;;5071722;28;20449;-61
2023/02/11 04:46:12;;;;;;;41.45;19.08;;;7.00;99.90;;;;;;5072039;28;20033;-61
2023/02/11 04:48:38;;;;;;;37.42;19.35;;;7.20;99.90;;;;;;5071845;28;20037;-61
2023/02/11 04:51:04;;;;;;;36.75;19.38;;;7.20;99.90;;;;;;5071656;28;20041;-61
2023/02/11 04:53:29;;;;;;;32.53;18.58;;;7.20;99.90;;;;;;5072043;28;20138;-61
2023/02/11 04:55:55;;;;;;;33.22;18.48;;;7.20;99.90;;;;;;5074277;28;20044;-61
2023/02/11 04:58:21;;;;;;;38.78;18.73;;;7.00;99.90;;;;;;5075639;28;20040;-61
2023/02/11 05:00:46;;;;;;;36.55;19.10;;;7.20;99.90;;;;;;5075420;28;20047;-61
2023/02/11 05:03:12;;;;;;;40.00;20.23;;;7.10;99.90;;;;;;5075660;28;20033;-61
2023/02/11 05:05:42;;;;;;;36.53;19.35;;;7.30;99.90;;;;;;5062945;28;20044;-61
2023/02/11 05:08:09;;;;;;;40.90;20.60;;;7.10;99.90;;;;;;5074429;28;20517;-61
2023/02/11 05:10:35;;;;;;;35.47;19.58;;;7.20;99.90;;;;;;5075720;28;20049;-62
2023/02/11 05:13:01;;;;;;;41.17;20.92;;;7.30;99.90;;;;;;5075505;28;20036;-61
2023/02/11 05:15:27;;;;;;;38.42;21.48;;;7.30;99.90;;;;;;5075540;28;20041;-61
2023/02/11 05:17:53;;;;;;;38.47;19.65;;;7.20;99.90;;;;;;5075226;28;20051;-61
2023/02/11 05:20:19;;;;;;;39.22;19.35;;;7.30;99.90;;;;;;5075507;28;20028;-61
2023/02/11 05:22:44;;;;;;;34.88;20.20;;;7.30;99.90;;;;;;5075513;28;20056;-61
2023/02/11 05:25:10;;;;;;;42.35;20.17;;;7.20;99.90;;;;;;5075159;28;20467;-61
2023/02/11 05:27:36;;;;;;;40.83;20.63;;;7.20;99.90;;;;;;5075129;28;20127;-61
2023/02/11 05:30:02;;;;;;;41.28;19.58;;;7.30;99.90;;;;;;5075102;28;20166;-61
2023/02/11 05:32:27;;;;;;;35.80;19.65;;;7.30;99.90;;;;;;5075311;28;20482;-61
2023/02/11 05:34:53;;;;;;;38.40;19.80;;;7.10;99.90;;;;;;5073605;28;20051;-61
2023/02/11 05:37:19;;;;;;;37.63;18.35;;;7.10;99.90;;;;;;5062265;28;20044;-61
2023/02/11 05:39:44;;;;;;;34.83;18.83;;;7.30;99.90;;;;;;5075117;28;20051;-61
2023/02/11 05:42:10;;;;;;;43.22;19.52;;;7.20;99.90;;;;;;5069871;28;20105;-61
2023/02/11 05:44:35;;;;;;;37.22;18.55;;;7.10;99.90;;;;;;5074991;28;20463;-61
2023/02/11 05:47:01;;;;;;;37.53;18.80;;;7.30;99.90;;;;;;5074863;28;20041;-61
2023/02/11 05:49:27;;;;;;;34.30;17.98;;;7.20;99.90;;;;;;5074564;28;20036;-62
2023/02/11 05:51:52;;;;;;;32.25;19.05;;;7.20;99.90;;;;;;5074748;28;20075;-61
2023/02/11 05:54:18;;;;;;;33.10;18.25;;;7.30;99.90;;;;;;5074898;28;20112;-61
2023/02/11 05:56:43;;;;;;;37.25;18.45;;;7.10;99.90;;;;;;5074744;28;20528;-62
2023/02/11 05:59:13;;;;;;;35.83;17.95;;;7.10;99.90;;;;;;5074742;28;20036;-61
2023/02/11 06:01:39;;;;;;;34.88;17.10;;;7.20;99.90;;;;;;5074481;28;20530;-61
2023/02/11 06:04:04;;;;;;;27.63;17.27;;;7.20;99.90;;;;;;5074330;28;20128;-61
2023/02/11 06:06:30;;;;;;;35.38;17.40;;;7.20;99.90;;;;;;5061663;28;20484;-61
2023/02/11 06:08:56;;;;;;;37.22;17.98;;;7.10;99.90;;;;;;5072851;28;20127;-61
2023/02/11 06:11:22;;;;;;;33.30;17.10;;;7.10;99.90;;;;;;5074332;28;20032;-60
2023/02/11 06:13:47;;;;;;;32.53;17.58;;;7.20;99.90;;;;;;5074570;28;20047;-61
2023/02/11 06:16:13;;;;;;;30.45;16.20;;;7.20;99.90;;;;;;5074137;28;20048;-61
2023/02/11 06:18:38;;;;;;;32.38;18.50;;;7.10;99.90;;;;;;5073902;28;20076;-61
2023/02/11 06:21:09;;;;;;;31.92;16.60;;;7.30;99.90;;;;;;5074447;28;20123;-61
2023/02/11 06:23:35;;;;;;;31.83;16.48;;;7.20;99.90;;;;;;5074258;28;20037;-61
2023/02/11 06:26:06;;;;;;;34.67;17.50;;;7.20;99.90;;;;;;5073830;28;20067;-61
2023/02/11 06:28:32;;;;;;;36.63;17.25;;;7.20;99.90;;;;;;5073999;28;20051;-61
2023/02/11 06:31:05;;;;;;;28.15;17.00;;;7.30;99.90;;;;;;5073679;28;20032;-61
2023/02/11 06:33:31;;;;;;;32.15;16.50;;;7.20;99.90;;;;;;5073950;28;20051;-61
2023/02/11 06:35:56;;;;;;;33.80;16.88;;;7.30;99.90;;;;;;5073961;28;20044;-62
2023/02/11 06:38:22;;;;;;;32.10;16.70;;;7.30;99.90;;;;;;5073661;28;20047;-61
2023/02/11 06:40:49;;;;;;;33.75;16.63;;;7.30;99.90;;;;;;5072551;28;20056;-61
2023/02/11 06:43:15;;;;;;;30.13;16.65;;;7.30;99.90;;;;;;5073861;28;20044;-61
2023/02/11 06:45:41;;;;;;;33.78;16.70;;;7.20;99.90;;;;;;5072580;28;20474;-61
2023/02/11 06:48:07;;;;;;;31.23;16.27;;;7.10;99.90;;;;;;5073779;28;20033;-61
2023/02/11 06:50:32;;;;;;;33.97;17.20;;;7.10;99.90;;;;;;5072619;28;20398;-61
2023/02/11 06:52:59;;;;;;;34.17;16.35;;;7.30;99.90;;;;;;5073755;28;20032;-62
2023/02/11 06:55:24;;;;;;;32.35;17.42;;;7.30;99.90;;;;;;5073779;28;20397;-61
2023/02/11 06:57:50;;;;;;;33.22;17.45;;;7.30;99.90;;;;;;5059029;28;20052;-61
2023/02/11 07:00:17;;;;;;;30.73;16.00;;;7.20;99.90;;;;;;5073551;28;20032;-62
2023/02/11 07:02:42;;;;;;;30.00;15.98;;;7.30;99.90;;;;;;5073482;28;20099;-61
2023/02/11 07:05:08;;;;;;;30.55;18.15;;;7.30;99.90;;;;;;5073719;28;20111;-61
2023/02/11 07:07:35;;;;;;;38.00;18.67;;;7.20;99.90;;;;;;5073389;28;20176;-61
2023/02/11 07:10:02;;;;;;;30.15;18.10;;;7.20;99.90;;;;;;5073527;28;20048;-61
2023/02/11 07:12:29;;;;;;;29.92;15.80;;;7.30;99.90;;;;;;5072171;28;20049;-61
2023/02/11 07:14:55;;;;;;;27.38;16.10;;;7.40;99.90;;;;;;5070186;28;20373;-62
2023/02/11 07:17:21;;;;;;;31.75;16.90;;;7.30;99.90;;;;;;5072272;28;20467;-61
2023/02/11 07:19:46;;;;;;;28.33;17.50;;;7.30;99.90;;;;;;5058892;28;20040;-61
2023/02/11 07:22:12;;;;;;;35.47;17.13;;;7.40;99.90;;;;;;5073239;28;20029;-61
2023/02/11 07:24:38;;;;;;;28.27;17.17;;;7.30;99.90;;;;;;5073241;28;20044;-61
2023/02/11 07:27:03;;;;;;;27.10;16.38;;;7.50;99.90;;;;;;5072780;28;20504;-62
2023/02/11 07:29:29;;;;;;;28.23;16.35;;;7.40;99.90;;;;;;5071228;28;20391;-61
2023/02/11 07:31:55;;;;;;;30.02;17.40;;;7.50;99.90;;;;;;5054862;28;20509;-61
2023/02/11 07:34:20;;;;;;;30.33;16.48;;;7.50;99.90;;;;;;5053196;28;20040;-61
2023/02/11 07:36:47;;;;;;;27.30;16.08;;;7.50;99.90;;;;;;5065258;28;20052;-61
2023/02/11 07:39:13;;;;;;;28.77;15.63;;;7.40;99.90;;;;;;5072560;28;20390;-61
2023/02/11 07:41:39;;;;;;;26.92;15.30;;;7.60;99.90;;;;;;5072661;28;20036;-61
2023/02/11 07:44:05;;;;;;;25.10;16.38;;;7.50;99.90;;;;;;5072619;28;20043;-62
2023/02/11 07:46:30;;;;;;;26.35;16.17;;;7.60;99.90;;;;;;5072283;28;20044;-61
2023/02/11 07:48:56;;;;;;;31.15;15.85;;;7.50;99.90;;;;;;5072515;28;20051;-61
2023/02/11 07:51:27;;;;;;;29.02;14.57;;;7.60;99.90;;;;;;5072634;28;20107;-61
2023/02/11 07:53:54;;;;;;;29.33;15.02;;;7.60;99.90;;;;;;5072483;28;20070;-62
2023/02/11 07:56:21;;;;;;;29.95;15.73;;;7.60;99.90;;;;;;5072132;28;20506;-61
2023/02/11 07:58:47;;;;;;;29.45;15.55;;;7.70;99.90;;;;;;5072316;28;20096;-61
2023/02/11 08:01:23;;;;;;;27.98;14.95;;;7.60;99.90;;;;;;5058216;28;20501;-61
2023/02/11 08:03:49;;;;;;;25.77;14.18;;;7.80;99.90;;;;;;5072365;28;20059;-61
2023/02/11 08:06:19;;;;;;;28.27;15.52;;;7.70;99.90;;;;;;5072566;28;20036;-61
2023/02/11 08:08:45;;;;;;;26.85;14.20;;;7.80;99.90;;;;;;5071958;28;20398;-61
2023/02/11 08:11:22;;;;;;;26.65;14.50;;;7.70;99.90;;;;;;5072155;28;20119;-61
2023/02/11 08:13:49;;;;;;;26.45;14.40;;;7.80;99.90;;;;;;5044481;28;20491;-61
2023/02/11 08:16:23;;;;;;;29.77;15.13;;;7.80;99.90;;;;;;5072144;28;20421;-62
2023/02/11 08:18:50;;;;;;;25.98;14.93;;;7.80;99.90;;;;;;5066774;28;20045;-61
2023/02/11 08:21:16;;;;;;;25.23;13.55;;;7.80;99.90;;;;;;5063521;28;20039;-62
2023/02/11 08:23:43;;;;;;;25.17;14.32;;;7.90;99.90;;;;;;5071832;28;20040;-61
2023/02/11 08:26:16;;;;;;;27.23;12.85;;;7.90;99.90;;;;;;5072121;28;20162;-61
2023/02/11 08:28:43;;;;;;;27.33;14.43;;;7.90;99.90;;;;;;5071819;28;20032;-61
2023/02/11 08:31:12;;;;;;;28.20;14.18;;;7.80;99.90;;;;;;5067548;28;20110;-61
2023/02/11 08:33:39;;;;;;;27.38;14.15;;;8.00;99.90;;;;;;5071918;28;20437;-61
2023/02/11 08:36:10;;;;;;;27.15;13.38;;;8.10;99.90;;;;;;5058091;28;20482;-61
2023/02/11 08:38:35;;;;;;;22.80;12.35;;;7.90;99.90;;;;;;5071668;28;20036;-61
2023/02/11 08:41:01;;;;;;;25.23;12.25;;;8.00;99.90;;;;;;5072124;28;20090;-62
2023/02/11 08:43:27;;;;;;;25.48;13.13;;;8.10;99.90;;;;;;5071891;28;20033;-61
2023/02/11 08:45:52;;;;;;;24.98;13.48;;;8.10;99.90;;;;;;5071679;28;20037;-61
2023/02/11 08:48:18;;;;;;;26.60;12.55;;;8.10;99.90;;;;;;5071635;28;20041;-62
2023/02/11 08:50:44;;;;;;;24.38;12.75;;;8.50;99.90;;;;;;5071453;28;20068;-62
2023/02/11 08:53:09;;;;;;;34.22;14.02;;;8.20;99.90;;;;;;5071807;28;20098;-62
2023/02/11 08:55:35;;;;;;;26.05;12.57;;;8.20;99.90;;;;;;5071557;28;20430;-61
2023/02/11 08:58:01;;;;;;;20.05;11.88;;;8.20;99.90;;;;;;5071619;28;20043;-61
2023/02/11 09:00:26;;;;;;;24.77;11.90;;;8.30;99.90;;;;;;5072146;28;20037;-63
2023/02/11 09:02:52;;;;;;;22.13;10.75;;;8.30;99.90;;;;;;5071621;28;20033;-61
2023/02/11 09:05:18;;;;;;;21.77;11.80;;;8.30;99.90;;;;;;5062248;28;20037;-61
2023/02/11 09:07:43;;;;;;;29.25;10.40;;;8.40;99.90;;;;;;5066922;28;20055;-62
2023/02/11 09:10:09;;;;;;;22.92;11.82;;;8.30;99.90;;;;;;5071527;28;20051;-62
2023/02/11 09:12:35;;;;;;;25.95;11.48;;;8.40;99.90;;;;;;5072057;28;20044;-61
2023/02/11 09:15:00;;;;;;;21.13;10.63;;;8.50;99.90;;;;;;5066065;28;20414;-61
2023/02/11 09:17:26;;;;;;;23.67;10.63;;;8.50;99.90;;;;;;5063341;28;20052;-62
2023/02/11 09:19:51;;;;;;;22.13;10.27;;;8.50;99.90;;;;;;5071951;28;20072;-62
2023/02/11 09:22:17;;;;;;;16.50;9.13;;;8.50;99.90;;;;;;5071560;28;20098;-61
2023/02/11 09:24:43;;;;;;;23.77;9.65;;;8.50;99.90;;;;;;5070496;28;20057;-61
2023/02/11 09:27:08;;;;;;;21.20;9.98;;;8.50;99.90;;;;;;5071833;28;20422;-61
2023/02/11 09:29:34;;;;;;;20.35;9.15;;;8.60;99.90;;;;;;5071459;28;20051;-62
2023/02/11 09:32:00;;;;;;;21.13;10.30;;;8.60;99.90;;;;;;5071152;28;20115;-61
2023/02/11 09:34:25;;;;;;;22.67;10.18;;;8.60;99.90;;;;;;5070156;28;20082;-61
2023/02/11 09:36:51;;;;;;;25.08;10.02;;;8.70;99.90;;;;;;5071474;28;20051;-62
2023/02/11 09:39:19;;;;;;;23.83;10.30;;;8.70;99.90;;;;;;5070239;28;20036;-61
2023/02/11 09:42:00;;;;;;;21.58;10.82;;;8.80;99.90;;;;;;5073608;28;20571;-61
2023/02/11 09:44:30;;;;;;;21.23;8.75;;;8.80;99.90;;;;;;5075239;28;20119;-61
2023/02/11 09:47:22;;;;;;;23.98;9.15;;;8.90;99.90;;;;;;5075101;28;20158;-61
2023/02/11 09:49:51;;;;;;;22.52;9.20;;;8.90;99.90;;;;;;5051382;28;20036;-62
2023/02/11 09:52:23;;;;;;;27.63;8.63;;;9.00;99.90;;;;;;5074937;28;20048;-62
2023/02/11 09:54:55;;;;;;;19.75;8.52;;;9.00;99.90;;;;;;5074971;28;20482;-61
2023/02/11 09:57:22;;;;;;;20.05;9.38;;;9.10;99.90;;;;;;5060551;28;20102;-62
2023/02/11 09:59:48;;;;;;;21.63;8.25;;;9.20;99.90;;;;;;5073919;28;20041;-62
2023/02/11 10:02:46;;;;;;;22.05;8.60;;;9.20;99.90;;;;;;5074484;28;20110;-62
2023/02/11 10:05:20;;;;;;;19.27;7.15;;;9.20;99.90;;;;;;5052320;28;20080;-62
2023/02/11 10:08:11;;;;;;;19.70;8.23;;;9.30;99.90;;;;;;5052095;28;20061;-63
2023/02/11 10:11:09;;;;;;;16.85;7.38;;;9.20;99.90;;;;;;5052573;28;20056;-62
2023/02/11 10:13:48;;;;;;;18.50;7.90;;;9.30;99.90;;;;;;5052275;28;20055;-62
2023/02/11 10:16:31;;;;;;;18.02;7.40;;;9.30;99.90;;;;;;5052085;28;20518;-62
2023/02/11 10:19:22;;;;;;;19.55;7.85;;;9.30;99.90;;;;;;5052188;28;20403;-62
2023/02/11 10:22:00;;;;;;;19.05;7.97;;;9.40;99.90;;;;;;5052188;28;20040;-62
2023/02/11 10:24:27;;;;;;;18.67;7.00;;;9.40;99.90;;;;;;5052020;28;20527;-61
2023/02/11 10:26:54;;;;;;;17.48;7.00;;;9.40;99.90;;;;;;5052104;28;20041;-61
2023/02/11 10:29:51;;;;;;;12.20;5.60;;;9.50;99.90;;;;;;5051805;28;20495;-62
2023/02/11 10:32:36;;;;;;;20.48;6.38;;;9.50;99.90;;;;;;5034252;28;20576;-62
2023/02/11 10:35:14;;;;;;;18.38;6.15;;;9.50;99.90;;;;;;5051709;28;20527;-61
2023/02/11 10:37:39;;;;;;;14.10;5.70;;;9.60;99.90;;;;;;5051638;28;20053;-62
2023/02/11 10:40:11;;;;;;;17.95;5.72;;;9.60;99.90;;;;;;5051644;28;20044;-62
2023/02/11 10:42:40;;;;;;;14.23;6.03;;;9.60;99.90;;;;;;5065484;28;20518;-62
2023/02/11 10:45:06;;;;;;;16.63;5.78;;;9.70;99.90;;;;;;5073600;28;20051;-62
2023/02/11 10:47:36;;;;;;;15.18;4.90;;;9.70;99.90;;;;;;5073474;28;20037;-62
2023/02/11 10:50:25;;;;;;;17.42;6.50;;;9.70;99.90;;;;;;5063462;28;20491;-62
2023/02/11 10:52:50;;;;;;;17.25;6.28;;;9.70;99.90;;;;;;5071637;28;20494;-62
2023/02/11 10:55:23;;;;;;;16.33;5.63;;;9.80;99.90;;;;;;5073520;28;20071;-62
2023/02/11 10:57:59;;;;;;;21.27;6.28;;;9.80;99.90;;;;;;5072039;28;20055;-62
2023/02/11 11:00:38;;;;;;;13.70;5.40;;;9.80;99.90;;;;;;5061857;28;20103;-62
2023/02/11 11:03:17;;;;;;;16.07;4.87;;;9.90;99.90;;;;;;5072441;28;20554;-62
2023/02/11 11:05:58;;;;;;;12.10;4.82;;;9.90;99.90;;;;;;5073314;28;20281;-62
2023/02/11 11:08:49;;;;;;;29.20;5.10;;;9.90;99.90;;;;;;5073252;28;20057;-62
2023/02/11 11:11:18;;;;;;;12.00;4.63;;;9.90;99.90;;;;;;5050877;28;20495;-62
2023/02/11 11:13:53;;;;;;;15.10;4.18;;;9.90;99.90;;;;;;5034419;28;20057;-62
2023/02/11 11:16:31;;;;;;;13.75;3.95;;;9.90;99.90;;;;;;5036847;28;20058;-62
2023/02/11 11:19:06;;;;;;;9.98;3.08;;;9.80;99.90;;;;;;5040711;28;20049;-62
2023/02/11 11:21:42;;;;;;;14.45;3.72;;;9.80;99.90;;;;;;5047932;28;20033;-62
2023/02/11 11:24:24;;;;;;;13.27;3.40;;;9.90;99.90;;;;;;5034439;28;20044;-62
2023/02/11 11:26:52;;;;;;;13.70;4.25;;;9.80;99.90;;;;;;5045628;28;20045;-62
2023/02/11 11:29:42;;;;;;;14.23;4.10;;;9.90;99.90;;;;;;5042026;28;20114;-62
2023/02/11 11:32:26;;;;;;;16.45;3.58;;;9.90;99.90;;;;;;5049808;28;20483;-62
2023/02/11 11:34:54;;;;;;;19.35;4.15;;;10.00;99.90;;;;;;5024305;28;20059;-62
2023/02/11 11:37:20;;;;;;;19.05;4.05;;;9.90;99.90;;;;;;5049994;28;20423;-63
2023/02/11 11:40:09;;;;;;;17.88;3.70;;;10.00;99.90;;;;;;5050411;28;20041;-63
2023/02/11 11:42:37;;;;;;;10.57;3.28;;;10.00;99.90;;;;;;5050178;28;20155;-63
2023/02/11 11:45:14;;;;;;;10.63;3.13;;;10.10;99.90;;;;;;5050192;28;20051;-63
2023/02/11 11:48:02;;;;;;;11.93;3.72;;;10.10;99.90;;;;;;5055782;28;20079;-62
2023/02/11 11:50:36;;;;;;;16.13;3.42;;;10.10;99.90;;;;;;5072342;28;20064;-62
2023/02/11 11:53:33;;;;;;;12.50;3.30;;;10.10;99.90;;;;;;5072305;28;20045;-63
2023/02/11 11:56:23;;;;;;;14.15;2.80;;;10.20;99.90;;;;;;5070108;28;20114;-63
2023/02/11 11:58:49;;;;;;;15.43;4.15;;;10.20;99.90;;;;;;5072082;28;20127;-61
2023/02/11 12:01:53;;;;;;;8.40;2.67;;;10.20;99.90;;;;;;5071962;28;20119;-62
2023/02/11 12:04:44;;;;;;;15.98;3.25;;;10.30;99.90;;;;;;5048954;28;20049;-61
2023/02/11 12:07:28;;;;;;;13.43;3.47;;;10.30;99.90;;;;;;5049789;28;20195;-62
2023/02/11 12:10:13;;;;;;;14.57;2.85;;;10.30;99.90;;;;;;5043972;28;20049;-61
2023/02/11 12:12:59;;;;;;;20.30;3.15;;;10.30;99.90;;;;;;5043593;28;20075;-61
2023/02/11 12:15:31;;;;;;;12.95;3.50;;;10.40;99.90;;;;;;5049415;28;20041;-61
2023/02/11 12:18:18;;;;;;;15.20;3.38;;;10.40;99.90;;;;;;5049300;28;20045;-62
2023/02/11 12:20:46;;;;;;;13.77;3.03;;;10.40;99.90;;;;;;5049326;28;20040;-61
2023/02/11 12:23:27;;;;;;;14.48;4.00;;;10.40;99.90;;;;;;5049265;28;20033;-62
2023/02/11 12:25:55;;;;;;;14.35;2.78;;;10.40;99.90;;;;;;5049460;28;20041;-61
2023/02/11 12:28:36;;;;;;;16.10;2.85;;;10.30;99.90;;;;;;5049065;28;20406;-61
2023/02/11 12:31:13;;;;;;;14.60;2.80;;;10.40;99.90;;;;;;5049268;28;20554;-61
2023/02/11 12:33:53;;;;;;;17.10;3.10;;;10.40;99.90;;;;;;5049359;28;20437;-61
2023/02/11 12:36:54;;;;;;;16.42;3.13;;;10.40;99.90;;;;;;5049132;28;20143;-62
2023/02/11 12:39:47;;;;;;;12.00;2.85;;;10.40;99.90;;;;;;5039374;28;20125;-61
2023/02/11 12:45:23;;;;;;;13.07;2.53;;;10.50;99.90;;;;;;5071740;28;20048;-61
2023/02/11 12:47:57;;;;;;;;;;;10.50;99.90;;;;;;5072124;28;20058;-61
2023/02/11 12:50:34;;;;;;;11.60;2.60;;;10.50;99.90;;;;;;5071368;28;20381;-61
2023/02/11 12:53:29;;;;;;;12.10;3.42;;;10.50;99.90;;;;;;5071970;28;20037;-61
2023/02/11 12:56:07;;;;;;;16.92;3.55;;;10.50;99.90;;;;;;5071500;28;20068;-61
2023/02/11 12:58:35;;;;;;;12.35;3.45;;;10.50;99.90;;;;;;5071670;28;20108;-61
2023/02/11 13:01:17;;;;;;;22.35;3.65;;;10.50;99.90;;;;;;5071056;28;20506;-62
2023/02/11 13:04:01;;;;;;;16.60;3.20;;;10.60;99.90;;;;;;5071302;28;20047;-62
2023/02/11 13:06:34;;;;;;;11.38;2.58;;;10.50;99.90;;;;;;5071221;28;20384;-61